sensor_id;sensor_type;location;lat;lon;timestamp;temperature;humidity
61386;DHT22;47256;18.904;-99.054;2023-05-07T00:00:25;34.00;45.00
61386;DHT22;47256;18.904;-99.054;2023-05-07T00:02:52;33.90;45.20
61386;DHT22;47256;18.904;-99.054;2023-05-07T00:05:23;33.90;45.00
61386;DHT22;47256;18.904;-99.054;2023-05-07T00:07:54;33.80;45.50
61386;DHT22;47256;18.904;-99.054;2023-05-07T00:10:21;33.80;45.80
61386;DHT22;47256;18.904;-99.054;2023-05-07T00:12:48;33.70;46.20
61386;DHT22;47256;18.904;-99.054;2023-05-07T00:15:16;33.70;46.50
61386;DHT22;47256;18.904;-99.054;2023-05-07T00:17:45;33.60;46.40
61386;DHT22;47256;18.904;-99.054;2023-05-07T00:20:13;33.50;46.80
61386;DHT22;47256;18.904;-99.054;2023-05-07T00:22:40;33.50;47.20
61386;DHT22;47256;18.904;-99.054;2023-05-07T00:25:07;33.40;47.20
61386;DHT22;47256;18.904;-99.054;2023-05-07T00:27:34;33.40;47.50
61386;DHT22;47256;18.904;-99.054;2023-05-07T00:30:02;33.30;48.00
61386;DHT22;47256;18.904;-99.054;2023-05-07T00:32:30;33.30;48.40
61386;DHT22;47256;18.904;-99.054;2023-05-07T00:34:57;33.20;48.60
61386;DHT22;47256;18.904;-99.054;2023-05-07T00:37:25;33.10;48.70
61386;DHT22;47256;18.904;-99.054;2023-05-07T00:39:53;33.00;49.00
61386;DHT22;47256;18.904;-99.054;2023-05-07T00:42:20;33.00;49.10
61386;DHT22;47256;18.904;-99.054;2023-05-07T00:44:53;32.90;49.10
61386;DHT22;47256;18.904;-99.054;2023-05-07T00:47:20;32.80;49.30
61386;DHT22;47256;18.904;-99.054;2023-05-07T00:49:47;32.80;49.50
61386;DHT22;47256;18.904;-99.054;2023-05-07T00:52:16;32.60;49.60
61386;DHT22;47256;18.904;-99.054;2023-05-07T00:54:44;32.60;49.60
61386;DHT22;47256;18.904;-99.054;2023-05-07T00:57:13;32.50;50.20
61386;DHT22;47256;18.904;-99.054;2023-05-07T00:59:41;32.40;50.60
61386;DHT22;47256;18.904;-99.054;2023-05-07T01:02:09;32.30;50.80
61386;DHT22;47256;18.904;-99.054;2023-05-07T01:04:38;32.30;51.20
61386;DHT22;47256;18.904;-99.054;2023-05-07T01:07:05;32.30;51.60
61386;DHT22;47256;18.904;-99.054;2023-05-07T01:09:33;32.20;52.00
61386;DHT22;47256;18.904;-99.054;2023-05-07T01:12:01;32.10;52.60
61386;DHT22;47256;18.904;-99.054;2023-05-07T01:14:31;32.00;52.40
61386;DHT22;47256;18.904;-99.054;2023-05-07T01:16:59;31.90;52.50
61386;DHT22;47256;18.904;-99.054;2023-05-07T01:19:29;31.90;52.50
61386;DHT22;47256;18.904;-99.054;2023-05-07T01:22:03;31.90;52.60
61386;DHT22;47256;18.904;-99.054;2023-05-07T01:24:39;31.90;52.60
61386;DHT22;47256;18.904;-99.054;2023-05-07T01:27:08;31.80;52.80
61386;DHT22;47256;18.904;-99.054;2023-05-07T01:29:37;31.70;52.90
61386;DHT22;47256;18.904;-99.054;2023-05-07T01:32:05;31.70;53.30
61386;DHT22;47256;18.904;-99.054;2023-05-07T01:34:33;31.60;53.50
61386;DHT22;47256;18.904;-99.054;2023-05-07T01:37:01;31.60;53.70
61386;DHT22;47256;18.904;-99.054;2023-05-07T01:39:31;31.50;53.70
61386;DHT22;47256;18.904;-99.054;2023-05-07T01:41:59;31.50;54.00
61386;DHT22;47256;18.904;-99.054;2023-05-07T01:44:28;31.40;54.00
61386;DHT22;47256;18.904;-99.054;2023-05-07T01:46:57;31.40;54.10
61386;DHT22;47256;18.904;-99.054;2023-05-07T01:49:24;31.40;54.10
61386;DHT22;47256;18.904;-99.054;2023-05-07T01:51:52;31.30;54.40
61386;DHT22;47256;18.904;-99.054;2023-05-07T01:54:19;31.30;54.50
61386;DHT22;47256;18.904;-99.054;2023-05-07T01:56:52;31.20;54.60
61386;DHT22;47256;18.904;-99.054;2023-05-07T01:59:19;31.20;54.90
61386;DHT22;47256;18.904;-99.054;2023-05-07T02:01:47;31.20;55.30
61386;DHT22;47256;18.904;-99.054;2023-05-07T02:04:14;31.10;55.90
61386;DHT22;47256;18.904;-99.054;2023-05-07T02:06:43;31.10;56.20
61386;DHT22;47256;18.904;-99.054;2023-05-07T02:09:12;31.10;55.80
61386;DHT22;47256;18.904;-99.054;2023-05-07T02:11:43;31.10;55.20
61386;DHT22;47256;18.904;-99.054;2023-05-07T02:14:11;31.20;55.10
61386;DHT22;47256;18.904;-99.054;2023-05-07T02:16:38;31.20;54.80
61386;DHT22;47256;18.904;-99.054;2023-05-07T02:19:06;31.20;55.10
61386;DHT22;47256;18.904;-99.054;2023-05-07T02:21:34;31.10;55.70
61386;DHT22;47256;18.904;-99.054;2023-05-07T02:24:01;31.00;55.60
61386;DHT22;47256;18.904;-99.054;2023-05-07T02:26:28;31.00;55.70
61386;DHT22;47256;18.904;-99.054;2023-05-07T02:28:55;30.90;55.60
61386;DHT22;47256;18.904;-99.054;2023-05-07T02:31:23;30.80;55.90
61386;DHT22;47256;18.904;-99.054;2023-05-07T02:33:50;30.80;56.60
61386;DHT22;47256;18.904;-99.054;2023-05-07T02:36:17;30.80;56.90
61386;DHT22;47256;18.904;-99.054;2023-05-07T02:38:56;30.80;55.20
61386;DHT22;47256;18.904;-99.054;2023-05-07T02:41:23;30.90;53.00
61386;DHT22;47256;18.904;-99.054;2023-05-07T02:43:51;31.10;50.80
61386;DHT22;47256;18.904;-99.054;2023-05-07T02:46:19;31.20;51.00
61386;DHT22;47256;18.904;-99.054;2023-05-07T02:48:51;31.30;51.50
61386;DHT22;47256;18.904;-99.054;2023-05-07T02:51:21;31.40;51.20
61386;DHT22;47256;18.904;-99.054;2023-05-07T02:53:48;31.40;50.50
61386;DHT22;47256;18.904;-99.054;2023-05-07T02:56:16;31.40;50.70
61386;DHT22;47256;18.904;-99.054;2023-05-07T02:58:44;31.40;50.40
61386;DHT22;47256;18.904;-99.054;2023-05-07T03:01:12;31.40;48.90
61386;DHT22;47256;18.904;-99.054;2023-05-07T03:04:14;31.40;49.00
61386;DHT22;47256;18.904;-99.054;2023-05-07T03:06:41;31.50;49.10
61386;DHT22;47256;18.904;-99.054;2023-05-07T03:09:09;31.60;50.40
61386;DHT22;47256;18.904;-99.054;2023-05-07T03:11:36;31.60;50.70
61386;DHT22;47256;18.904;-99.054;2023-05-07T03:14:06;31.50;51.30
61386;DHT22;47256;18.904;-99.054;2023-05-07T03:16:35;31.50;50.60
61386;DHT22;47256;18.904;-99.054;2023-05-07T03:19:03;31.40;51.70
61386;DHT22;47256;18.904;-99.054;2023-05-07T03:21:30;31.40;52.50
61386;DHT22;47256;18.904;-99.054;2023-05-07T03:24:00;31.30;52.60
61386;DHT22;47256;18.904;-99.054;2023-05-07T03:26:28;31.20;53.50
61386;DHT22;47256;18.904;-99.054;2023-05-07T03:28:56;31.20;53.90
61386;DHT22;47256;18.904;-99.054;2023-05-07T03:31:23;31.20;54.00
61386;DHT22;47256;18.904;-99.054;2023-05-07T03:33:57;31.20;55.00
61386;DHT22;47256;18.904;-99.054;2023-05-07T03:36:25;31.10;54.70
61386;DHT22;47256;18.904;-99.054;2023-05-07T03:38:56;31.10;54.90
61386;DHT22;47256;18.904;-99.054;2023-05-07T03:41:26;31.10;55.10
61386;DHT22;47256;18.904;-99.054;2023-05-07T03:43:54;31.00;55.50
61386;DHT22;47256;18.904;-99.054;2023-05-07T03:46:21;31.00;55.80
61386;DHT22;47256;18.904;-99.054;2023-05-07T03:48:49;30.90;56.20
61386;DHT22;47256;18.904;-99.054;2023-05-07T03:51:17;30.80;56.30
61386;DHT22;47256;18.904;-99.054;2023-05-07T03:53:45;30.80;56.60
61386;DHT22;47256;18.904;-99.054;2023-05-07T03:56:12;30.70;57.00
61386;DHT22;47256;18.904;-99.054;2023-05-07T03:58:41;30.70;57.50
61386;DHT22;47256;18.904;-99.054;2023-05-07T04:01:11;30.70;57.60
61386;DHT22;47256;18.904;-99.054;2023-05-07T04:03:39;30.60;57.80
61386;DHT22;47256;18.904;-99.054;2023-05-07T04:06:07;30.60;57.50
61386;DHT22;47256;18.904;-99.054;2023-05-07T04:08:36;30.50;57.60
61386;DHT22;47256;18.904;-99.054;2023-05-07T04:11:05;30.50;57.80
61386;DHT22;47256;18.904;-99.054;2023-05-07T04:13:34;30.40;57.60
61386;DHT22;47256;18.904;-99.054;2023-05-07T04:16:04;30.40;57.70
61386;DHT22;47256;18.904;-99.054;2023-05-07T04:18:34;30.30;57.80
61386;DHT22;47256;18.904;-99.054;2023-05-07T04:21:02;30.30;57.40
61386;DHT22;47256;18.904;-99.054;2023-05-07T04:23:29;30.30;57.50
61386;DHT22;47256;18.904;-99.054;2023-05-07T04:26:00;30.30;57.00
61386;DHT22;47256;18.904;-99.054;2023-05-07T04:28:37;30.20;56.70
61386;DHT22;47256;18.904;-99.054;2023-05-07T04:31:05;30.20;56.70
61386;DHT22;47256;18.904;-99.054;2023-05-07T04:33:34;30.20;56.90
61386;DHT22;47256;18.904;-99.054;2023-05-07T04:36:03;30.20;56.70
61386;DHT22;47256;18.904;-99.054;2023-05-07T04:38:34;30.10;56.00
61386;DHT22;47256;18.904;-99.054;2023-05-07T04:41:04;30.10;55.50
61386;DHT22;47256;18.904;-99.054;2023-05-07T04:43:34;30.10;55.70
61386;DHT22;47256;18.904;-99.054;2023-05-07T04:46:01;30.10;56.00
61386;DHT22;47256;18.904;-99.054;2023-05-07T04:48:29;30.10;56.00
61386;DHT22;47256;18.904;-99.054;2023-05-07T04:50:58;30.00;56.20
61386;DHT22;47256;18.904;-99.054;2023-05-07T04:53:25;29.90;56.40
61386;DHT22;47256;18.904;-99.054;2023-05-07T04:55:56;29.90;56.60
61386;DHT22;47256;18.904;-99.054;2023-05-07T04:58:25;29.80;56.40
61386;DHT22;47256;18.904;-99.054;2023-05-07T05:00:53;29.80;56.60
61386;DHT22;47256;18.904;-99.054;2023-05-07T05:03:21;29.70;56.60
61386;DHT22;47256;18.904;-99.054;2023-05-07T05:05:50;29.70;56.70
61386;DHT22;47256;18.904;-99.054;2023-05-07T05:08:20;29.70;56.80
61386;DHT22;47256;18.904;-99.054;2023-05-07T05:10:48;29.60;56.90
61386;DHT22;47256;18.904;-99.054;2023-05-07T05:13:16;29.60;56.80
61386;DHT22;47256;18.904;-99.054;2023-05-07T05:15:44;29.60;56.60
61386;DHT22;47256;18.904;-99.054;2023-05-07T05:18:12;29.50;56.60
61386;DHT22;47256;18.904;-99.054;2023-05-07T05:20:40;29.50;56.60
61386;DHT22;47256;18.904;-99.054;2023-05-07T05:23:08;29.40;56.90
61386;DHT22;47256;18.904;-99.054;2023-05-07T05:25:35;29.40;56.90
61386;DHT22;47256;18.904;-99.054;2023-05-07T05:28:04;29.40;57.20
61386;DHT22;47256;18.904;-99.054;2023-05-07T05:30:33;29.30;57.50
61386;DHT22;47256;18.904;-99.054;2023-05-07T05:33:02;29.20;57.60
61386;DHT22;47256;18.904;-99.054;2023-05-07T05:35:30;29.10;57.80
61386;DHT22;47256;18.904;-99.054;2023-05-07T05:38:01;29.10;58.20
61386;DHT22;47256;18.904;-99.054;2023-05-07T05:40:29;29.00;58.20
61386;DHT22;47256;18.904;-99.054;2023-05-07T05:42:57;29.00;58.40
61386;DHT22;47256;18.904;-99.054;2023-05-07T05:45:25;29.00;58.70
61386;DHT22;47256;18.904;-99.054;2023-05-07T05:47:52;29.00;59.30
61386;DHT22;47256;18.904;-99.054;2023-05-07T05:50:20;28.90;59.80
61386;DHT22;47256;18.904;-99.054;2023-05-07T05:52:48;28.80;59.80
61386;DHT22;47256;18.904;-99.054;2023-05-07T05:55:17;28.70;60.00
61386;DHT22;47256;18.904;-99.054;2023-05-07T05:57:44;28.70;60.20
61386;DHT22;47256;18.904;-99.054;2023-05-07T06:00:12;28.60;60.60
61386;DHT22;47256;18.904;-99.054;2023-05-07T06:02:48;28.60;60.60
61386;DHT22;47256;18.904;-99.054;2023-05-07T06:05:21;28.50;61.00
61386;DHT22;47256;18.904;-99.054;2023-05-07T06:07:53;28.40;61.00
61386;DHT22;47256;18.904;-99.054;2023-05-07T06:10:20;28.40;60.80
61386;DHT22;47256;18.904;-99.054;2023-05-07T06:12:47;28.40;61.00
61386;DHT22;47256;18.904;-99.054;2023-05-07T06:15:17;28.30;61.10
61386;DHT22;47256;18.904;-99.054;2023-05-07T06:17:45;28.30;61.10
61386;DHT22;47256;18.904;-99.054;2023-05-07T06:20:15;28.20;60.80
61386;DHT22;47256;18.904;-99.054;2023-05-07T06:22:43;28.20;60.20
61386;DHT22;47256;18.904;-99.054;2023-05-07T06:25:12;28.20;59.20
61386;DHT22;47256;18.904;-99.054;2023-05-07T06:27:40;28.20;58.80
61386;DHT22;47256;18.904;-99.054;2023-05-07T06:30:08;28.30;58.60
61386;DHT22;47256;18.904;-99.054;2023-05-07T06:32:37;28.20;57.90
61386;DHT22;47256;18.904;-99.054;2023-05-07T06:35:04;28.20;57.50
61386;DHT22;47256;18.904;-99.054;2023-05-07T06:37:33;28.30;57.30
61386;DHT22;47256;18.904;-99.054;2023-05-07T06:40:05;28.30;57.90
61386;DHT22;47256;18.904;-99.054;2023-05-07T06:42:38;28.20;58.40
61386;DHT22;47256;18.904;-99.054;2023-05-07T06:45:29;28.20;59.00
61386;DHT22;47256;18.904;-99.054;2023-05-07T06:47:58;28.20;59.60
61386;DHT22;47256;18.904;-99.054;2023-05-07T06:50:26;28.10;59.90
61386;DHT22;47256;18.904;-99.054;2023-05-07T06:52:57;28.10;60.70
61386;DHT22;47256;18.904;-99.054;2023-05-07T06:55:25;28.00;60.90
61386;DHT22;47256;18.904;-99.054;2023-05-07T06:57:53;27.90;61.20
61386;DHT22;47256;18.904;-99.054;2023-05-07T07:00:22;27.90;61.40
61386;DHT22;47256;18.904;-99.054;2023-05-07T07:02:54;27.90;61.40
61386;DHT22;47256;18.904;-99.054;2023-05-07T07:05:25;27.80;62.30
61386;DHT22;47256;18.904;-99.054;2023-05-07T07:07:54;27.70;62.80
61386;DHT22;47256;18.904;-99.054;2023-05-07T07:10:22;27.70;63.40
61386;DHT22;47256;18.904;-99.054;2023-05-07T07:12:51;27.70;63.90
61386;DHT22;47256;18.904;-99.054;2023-05-07T07:15:20;27.60;64.00
61386;DHT22;47256;18.904;-99.054;2023-05-07T07:17:48;27.50;64.20
61386;DHT22;47256;18.904;-99.054;2023-05-07T07:20:17;27.40;64.80
61386;DHT22;47256;18.904;-99.054;2023-05-07T07:22:45;27.40;65.50
61386;DHT22;47256;18.904;-99.054;2023-05-07T07:25:13;27.30;65.70
61386;DHT22;47256;18.904;-99.054;2023-05-07T07:27:40;27.30;65.80
61386;DHT22;47256;18.904;-99.054;2023-05-07T07:30:09;27.20;65.70
61386;DHT22;47256;18.904;-99.054;2023-05-07T07:32:39;27.10;65.80
61386;DHT22;47256;18.904;-99.054;2023-05-07T07:35:07;27.10;65.70
61386;DHT22;47256;18.904;-99.054;2023-05-07T07:37:36;27.00;65.90
61386;DHT22;47256;18.904;-99.054;2023-05-07T07:40:03;27.00;65.90
61386;DHT22;47256;18.904;-99.054;2023-05-07T07:42:33;27.00;65.90
61386;DHT22;47256;18.904;-99.054;2023-05-07T07:45:01;27.00;66.00
61386;DHT22;47256;18.904;-99.054;2023-05-07T07:47:32;26.90;66.30
61386;DHT22;47256;18.904;-99.054;2023-05-07T07:49:59;26.90;66.40
61386;DHT22;47256;18.904;-99.054;2023-05-07T07:52:26;26.90;66.80
61386;DHT22;47256;18.904;-99.054;2023-05-07T07:54:56;26.80;67.00
61386;DHT22;47256;18.904;-99.054;2023-05-07T07:57:23;26.70;67.50
61386;DHT22;47256;18.904;-99.054;2023-05-07T07:59:51;26.70;67.60
61386;DHT22;47256;18.904;-99.054;2023-05-07T08:02:19;26.70;67.50
61386;DHT22;47256;18.904;-99.054;2023-05-07T08:04:49;26.60;67.30
61386;DHT22;47256;18.904;-99.054;2023-05-07T08:07:17;26.60;67.30
61386;DHT22;47256;18.904;-99.054;2023-05-07T08:09:48;26.60;67.60
61386;DHT22;47256;18.904;-99.054;2023-05-07T08:12:18;26.50;67.20
61386;DHT22;47256;18.904;-99.054;2023-05-07T08:14:45;26.50;67.00
61386;DHT22;47256;18.904;-99.054;2023-05-07T08:17:12;26.40;66.40
61386;DHT22;47256;18.904;-99.054;2023-05-07T08:19:43;26.40;66.20
61386;DHT22;47256;18.904;-99.054;2023-05-07T08:22:13;26.30;66.00
61386;DHT22;47256;18.904;-99.054;2023-05-07T08:24:40;26.30;65.70
61386;DHT22;47256;18.904;-99.054;2023-05-07T08:27:08;26.30;65.80
61386;DHT22;47256;18.904;-99.054;2023-05-07T08:29:36;26.30;66.00
61386;DHT22;47256;18.904;-99.054;2023-05-07T08:32:03;26.20;66.00
61386;DHT22;47256;18.904;-99.054;2023-05-07T08:34:31;26.20;65.70
61386;DHT22;47256;18.904;-99.054;2023-05-07T08:37:00;26.10;65.60
61386;DHT22;47256;18.904;-99.054;2023-05-07T08:39:30;26.10;65.40
61386;DHT22;47256;18.904;-99.054;2023-05-07T08:41:58;26.10;65.20
61386;DHT22;47256;18.904;-99.054;2023-05-07T08:44:27;26.00;64.80
61386;DHT22;47256;18.904;-99.054;2023-05-07T08:46:57;26.00;64.80
61386;DHT22;47256;18.904;-99.054;2023-05-07T08:49:26;25.90;64.20
61386;DHT22;47256;18.904;-99.054;2023-05-07T08:51:54;25.90;64.50
61386;DHT22;47256;18.904;-99.054;2023-05-07T08:54:22;25.90;64.50
61386;DHT22;47256;18.904;-99.054;2023-05-07T08:56:50;25.80;65.10
61386;DHT22;47256;18.904;-99.054;2023-05-07T08:59:18;25.80;65.10
61386;DHT22;47256;18.904;-99.054;2023-05-07T09:01:46;25.80;65.30
61386;DHT22;47256;18.904;-99.054;2023-05-07T09:04:16;25.80;65.60
61386;DHT22;47256;18.904;-99.054;2023-05-07T09:06:44;25.70;65.50
61386;DHT22;47256;18.904;-99.054;2023-05-07T09:09:22;25.70;65.50
61386;DHT22;47256;18.904;-99.054;2023-05-07T09:11:58;25.70;65.80
61386;DHT22;47256;18.904;-99.054;2023-05-07T09:14:28;25.60;66.30
61386;DHT22;47256;18.904;-99.054;2023-05-07T09:16:57;25.50;66.30
61386;DHT22;47256;18.904;-99.054;2023-05-07T09:19:24;25.50;66.50
61386;DHT22;47256;18.904;-99.054;2023-05-07T09:22:04;25.50;67.40
61386;DHT22;47256;18.904;-99.054;2023-05-07T09:24:56;25.50;67.80
61386;DHT22;47256;18.904;-99.054;2023-05-07T09:27:26;25.50;68.00
61386;DHT22;47256;18.904;-99.054;2023-05-07T09:29:55;25.40;68.30
61386;DHT22;47256;18.904;-99.054;2023-05-07T09:32:22;25.40;68.60
61386;DHT22;47256;18.904;-99.054;2023-05-07T09:34:51;25.30;68.80
61386;DHT22;47256;18.904;-99.054;2023-05-07T09:37:22;25.30;69.00
61386;DHT22;47256;18.904;-99.054;2023-05-07T09:39:50;25.30;69.50
61386;DHT22;47256;18.904;-99.054;2023-05-07T09:42:25;25.30;69.90
61386;DHT22;47256;18.904;-99.054;2023-05-07T09:44:56;25.20;70.10
61386;DHT22;47256;18.904;-99.054;2023-05-07T09:47:30;25.20;70.30
61386;DHT22;47256;18.904;-99.054;2023-05-07T09:50:00;25.20;71.10
61386;DHT22;47256;18.904;-99.054;2023-05-07T09:52:32;25.10;72.40
61386;DHT22;47256;18.904;-99.054;2023-05-07T09:55:04;25.10;72.00
61386;DHT22;47256;18.904;-99.054;2023-05-07T09:57:34;25.10;72.30
61386;DHT22;47256;18.904;-99.054;2023-05-07T10:00:06;25.00;72.60
61386;DHT22;47256;18.904;-99.054;2023-05-07T10:02:56;25.00;72.90
61386;DHT22;47256;18.904;-99.054;2023-05-07T10:05:34;24.90;73.30
61386;DHT22;47256;18.904;-99.054;2023-05-07T10:08:02;24.90;73.30
61386;DHT22;47256;18.904;-99.054;2023-05-07T10:10:32;24.90;73.60
61386;DHT22;47256;18.904;-99.054;2023-05-07T10:13:01;24.80;73.90
61386;DHT22;47256;18.904;-99.054;2023-05-07T10:15:35;24.80;73.20
61386;DHT22;47256;18.904;-99.054;2023-05-07T10:18:06;24.80;73.50
61386;DHT22;47256;18.904;-99.054;2023-05-07T10:20:36;24.80;73.10
61386;DHT22;47256;18.904;-99.054;2023-05-07T10:23:06;24.80;72.90
61386;DHT22;47256;18.904;-99.054;2023-05-07T10:25:42;24.70;72.10
61386;DHT22;47256;18.904;-99.054;2023-05-07T10:28:18;24.70;71.90
61386;DHT22;47256;18.904;-99.054;2023-05-07T10:31:08;24.70;71.90
61386;DHT22;47256;18.904;-99.054;2023-05-07T10:33:44;24.70;71.60
61386;DHT22;47256;18.904;-99.054;2023-05-07T10:36:14;24.70;71.40
61386;DHT22;47256;18.904;-99.054;2023-05-07T10:38:41;24.70;70.70
61386;DHT22;47256;18.904;-99.054;2023-05-07T10:41:10;24.60;69.90
61386;DHT22;47256;18.904;-99.054;2023-05-07T10:43:45;24.60;70.40
61386;DHT22;47256;18.904;-99.054;2023-05-07T10:46:20;24.50;69.60
61386;DHT22;47256;18.904;-99.054;2023-05-07T10:49:08;24.50;69.60
61386;DHT22;47256;18.904;-99.054;2023-05-07T10:52:16;24.40;69.80
61386;DHT22;47256;18.904;-99.054;2023-05-07T10:55:20;24.40;70.30
61386;DHT22;47256;18.904;-99.054;2023-05-07T10:57:56;24.30;70.20
61386;DHT22;47256;18.904;-99.054;2023-05-07T11:00:49;24.30;70.30
61386;DHT22;47256;18.904;-99.054;2023-05-07T11:03:24;24.20;70.40
61386;DHT22;47256;18.904;-99.054;2023-05-07T11:06:16;24.10;70.70
61386;DHT22;47256;18.904;-99.054;2023-05-07T11:08:58;24.10;71.20
61386;DHT22;47256;18.904;-99.054;2023-05-07T11:11:50;24.00;71.30
61386;DHT22;47256;18.904;-99.054;2023-05-07T11:14:44;24.00;72.00
61386;DHT22;47256;18.904;-99.054;2023-05-07T11:17:33;23.90;72.00
61386;DHT22;47256;18.904;-99.054;2023-05-07T11:20:07;23.90;72.60
61386;DHT22;47256;18.904;-99.054;2023-05-07T11:22:48;23.80;72.90
61386;DHT22;47256;18.904;-99.054;2023-05-07T11:25:34;23.80;73.20
61386;DHT22;47256;18.904;-99.054;2023-05-07T11:28:13;23.80;73.40
61386;DHT22;47256;18.904;-99.054;2023-05-07T11:30:52;23.80;73.80
61386;DHT22;47256;18.904;-99.054;2023-05-07T11:33:21;23.70;74.30
61386;DHT22;47256;18.904;-99.054;2023-05-07T11:35:53;23.70;74.60
61386;DHT22;47256;18.904;-99.054;2023-05-07T11:38:25;23.60;74.60
61386;DHT22;47256;18.904;-99.054;2023-05-07T11:40:53;23.60;74.80
61386;DHT22;47256;18.904;-99.054;2023-05-07T11:43:21;23.60;74.70
61386;DHT22;47256;18.904;-99.054;2023-05-07T11:45:49;23.60;75.00
61386;DHT22;47256;18.904;-99.054;2023-05-07T11:48:17;23.50;75.10
61386;DHT22;47256;18.904;-99.054;2023-05-07T11:50:51;23.50;75.20
61386;DHT22;47256;18.904;-99.054;2023-05-07T11:53:25;23.50;75.60
61386;DHT22;47256;18.904;-99.054;2023-05-07T11:55:53;23.50;75.40
61386;DHT22;47256;18.904;-99.054;2023-05-07T11:58:23;23.50;75.40
61386;DHT22;47256;18.904;-99.054;2023-05-07T12:57:19;23.60;77.70
61386;DHT22;47256;18.904;-99.054;2023-05-07T12:59:47;23.50;79.60
